ARG1896 SAWC-SAWH
Flight info
| Callsign | ARG1896 |
|---|---|
| Flight time | 1h 0m |
| Altitude | 41000 |
| Route | DEVIS2D DEVIS UW52 GAL UW42 GRA DCT DABLI DABLI1Q |
| Aircraft | A343/H-SDE2E3FGHIJ4J5M1RWXY/LB1D1 |
Departure
| Time | 2026-04-22 22:46 |
|---|---|
| Airport | El Calafate - Commander Armando Tola International Airport (SAWC) |
Arrival
| Time | 2026-04-22 23:47 |
|---|---|
| Airport | Ushuaia - Malvinas Argentinas International Airport (SAWH) |
| Time | Latitude | Longitude | Altitude | Speed | Heading |
|---|---|---|---|---|---|
| 2026-04-22 22:20 | -50.28332 | -72.05386 | 647 ft | 0 kts | 175° |
| 2026-04-22 22:37 | -50.28329 | -72.05387 | 647 ft | 3 kts | 178° |
| 2026-04-22 22:37 | -50.28320 | -72.05385 | 648 ft | 4 kts | 196° |
| 2026-04-22 22:37 | -50.28296 | -72.05367 | 650 ft | 4 kts | 225° |
| 2026-04-22 22:37 | -50.28284 | -72.05345 | 647 ft | 0 kts | 233° |
| 2026-04-22 22:40 | -50.28284 | -72.05348 | 647 ft | 0 kts | 246° |
| 2026-04-22 22:40 | -50.28284 | -72.05355 | 649 ft | 1 kts | 256° |
| 2026-04-22 22:40 | -50.28283 | -72.05367 | 647 ft | 1 kts | 279° |
| 2026-04-22 22:41 | -50.28275 | -72.05379 | 647 ft | 2 kts | 313° |
| 2026-04-22 22:41 | -50.28264 | -72.05384 | 647 ft | 4 kts | 341° |
| 2026-04-22 22:41 | -50.28225 | -72.05401 | 647 ft | 7 kts | 348° |
| 2026-04-22 22:41 | -50.28168 | -72.05409 | 647 ft | 10 kts | 354° |
| 2026-04-22 22:42 | -50.28091 | -72.05416 | 648 ft | 12 kts | 355° |
| 2026-04-22 22:42 | -50.28027 | -72.05373 | 648 ft | 10 kts | 58° |
| 2026-04-22 22:42 | -50.28017 | -72.05258 | 648 ft | 12 kts | 84° |
| 2026-04-22 22:42 | -50.28006 | -72.05090 | 648 ft | 20 kts | 84° |
| 2026-04-22 22:43 | -50.27990 | -72.04831 | 650 ft | 27 kts | 84° |
| 2026-04-22 22:43 | -50.27971 | -72.04508 | 649 ft | 32 kts | 85° |
| 2026-04-22 22:43 | -50.27949 | -72.04151 | 646 ft | 34 kts | 85° |
| 2026-04-22 22:43 | -50.27931 | -72.03830 | 648 ft | 7 kts | 86° |
| 2026-04-22 22:44 | -50.27941 | -72.03733 | 649 ft | 11 kts | 111° |
| 2026-04-22 22:44 | -50.27962 | -72.03614 | 647 ft | 10 kts | 86° |
| 2026-04-22 22:44 | -50.27945 | -72.03584 | 650 ft | 2 kts | 22° |
| 2026-04-22 22:44 | -50.27936 | -72.03583 | 647 ft | 2 kts | 5° |
| 2026-04-22 22:45 | -50.27923 | -72.03595 | 647 ft | 2 kts | 314° |
| 2026-04-22 22:45 | -50.27921 | -72.03635 | 647 ft | 5 kts | 264° |
| 2026-04-22 22:45 | -50.27927 | -72.03734 | 646 ft | 31 kts | 264° |
| 2026-04-22 22:45 | -50.27995 | -72.04877 | 650 ft | 123 kts | 266° |
| 2026-04-22 22:46 | -50.28027 | -72.05897 | 840 ft | 147 kts | 263° |
| 2026-04-22 22:46 | -50.28119 | -72.07521 | 1532 ft | 157 kts | 270° |
| 2026-04-22 22:46 | -50.28231 | -72.09290 | 2340 ft | 170 kts | 270° |
| 2026-04-22 22:46 | -50.28417 | -72.11192 | 3157 ft | 187 kts | 269° |
| 2026-04-22 22:47 | -50.28575 | -72.13332 | 4035 ft | 206 kts | 270° |
| 2026-04-22 22:47 | -50.28689 | -72.15599 | 5210 ft | 211 kts | 271° |
| 2026-04-22 22:47 | -50.28752 | -72.17896 | 6514 ft | 211 kts | 272° |
| 2026-04-22 22:47 | -50.28851 | -72.20181 | 7868 ft | 211 kts | 270° |
| 2026-04-22 22:48 | -50.28999 | -72.22456 | 9209 ft | 209 kts | 269° |
| 2026-04-22 22:48 | -50.29147 | -72.24734 | 10280 ft | 215 kts | 269° |
| 2026-04-22 22:48 | -50.29293 | -72.27127 | 11166 ft | 225 kts | 269° |
| 2026-04-22 22:48 | -50.29443 | -72.29587 | 12157 ft | 230 kts | 269° |
| 2026-04-22 22:49 | -50.29589 | -72.32105 | 13157 ft | 235 kts | 269° |
| 2026-04-22 22:49 | -50.29737 | -72.34672 | 14027 ft | 240 kts | 269° |
| 2026-04-22 22:49 | -50.29953 | -72.37294 | 14877 ft | 247 kts | 263° |
| 2026-04-22 22:49 | -50.30558 | -72.39869 | 15724 ft | 261 kts | 249° |
| 2026-04-22 22:50 | -50.31722 | -72.42157 | 16559 ft | 281 kts | 232° |
| 2026-04-22 22:50 | -50.33370 | -72.43971 | 17441 ft | 295 kts | 223° |
| 2026-04-22 22:50 | -50.35140 | -72.45596 | 18185 ft | 302 kts | 221° |
| 2026-04-22 22:50 | -50.37040 | -72.47203 | 18899 ft | 314 kts | 216° |
| 2026-04-22 22:51 | -50.39187 | -72.48142 | 19603 ft | 340 kts | 197° |
| 2026-04-22 22:51 | -50.41683 | -72.47802 | 20232 ft | 375 kts | 173° |
| 2026-04-22 22:51 | -50.44091 | -72.45938 | 20547 ft | 411 kts | 149° |
| 2026-04-22 22:51 | -50.46127 | -72.42577 | 20888 ft | 438 kts | 126° |
| 2026-04-22 22:52 | -50.47387 | -72.38163 | 21415 ft | 451 kts | 103° |
| 2026-04-22 22:52 | -50.47696 | -72.33255 | 21984 ft | 452 kts | 81° |
| 2026-04-22 22:52 | -50.47178 | -72.28428 | 22675 ft | 452 kts | 74° |
| 2026-04-22 22:52 | -50.47163 | -72.23421 | 23267 ft | 466 kts | 96° |
| 2026-04-22 22:53 | -50.47917 | -72.18450 | 23924 ft | 470 kts | 105° |
| 2026-04-22 22:53 | -50.48887 | -72.13531 | 24568 ft | 473 kts | 107° |
| 2026-04-22 22:53 | -50.49908 | -72.08613 | 25161 ft | 473 kts | 107° |
| 2026-04-22 22:53 | -50.50931 | -72.03768 | 26252 ft | 461 kts | 107° |
| 2026-04-22 22:54 | -50.51943 | -71.99001 | 26947 ft | 461 kts | 107° |
| 2026-04-22 22:54 | -50.52964 | -71.94196 | 27420 ft | 466 kts | 107° |
| 2026-04-22 22:54 | -50.53995 | -71.89340 | 27924 ft | 469 kts | 107° |
| 2026-04-22 22:54 | -50.55031 | -71.84457 | 28422 ft | 472 kts | 107° |
| 2026-04-22 22:55 | -50.56179 | -71.79603 | 28933 ft | 476 kts | 113° |
| 2026-04-22 22:55 | -50.57823 | -71.75060 | 29417 ft | 479 kts | 126° |
| 2026-04-22 22:55 | -50.62170 | -71.66992 | 30001 ft | 491 kts | 133° |
| 2026-04-22 22:56 | -50.64464 | -71.62932 | 30210 ft | 499 kts | 133° |
| 2026-04-22 22:56 | -50.66768 | -71.58839 | 30618 ft | 500 kts | 132° |
| 2026-04-22 22:56 | -50.69073 | -71.54727 | 31137 ft | 499 kts | 132° |
| 2026-04-22 22:56 | -50.71366 | -71.50622 | 31681 ft | 497 kts | 132° |
| 2026-04-22 22:57 | -50.73647 | -71.46532 | 32239 ft | 496 kts | 132° |
| 2026-04-22 22:57 | -50.75918 | -71.42451 | 32753 ft | 494 kts | 132° |
| 2026-04-22 22:57 | -50.78155 | -71.38422 | 33282 ft | 493 kts | 131° |
| 2026-04-22 22:57 | -50.80451 | -71.34281 | 33560 ft | 498 kts | 131° |
| 2026-04-22 22:58 | -50.82716 | -71.30189 | 33723 ft | 504 kts | 131° |
| 2026-04-22 22:58 | -50.85020 | -71.26020 | 34134 ft | 503 kts | 131° |
| 2026-04-22 22:58 | -50.87321 | -71.21848 | 34563 ft | 501 kts | 131° |
| 2026-04-22 22:58 | -50.89611 | -71.17692 | 34968 ft | 501 kts | 131° |
| 2026-04-22 22:59 | -50.91896 | -71.13536 | 35336 ft | 501 kts | 131° |
| 2026-04-22 22:59 | -50.94184 | -71.09368 | 35698 ft | 501 kts | 131° |
| 2026-04-22 22:59 | -50.96470 | -71.05198 | 36050 ft | 501 kts | 131° |
| 2026-04-22 22:59 | -50.98737 | -71.00991 | 36454 ft | 500 kts | 129° |
| 2026-04-22 23:00 | -51.00679 | -70.96421 | 36858 ft | 499 kts | 117° |
| 2026-04-22 23:00 | -51.02025 | -70.91379 | 37208 ft | 496 kts | 104° |
| 2026-04-22 23:00 | -51.02737 | -70.86038 | 37537 ft | 493 kts | 95° |
| 2026-04-22 23:00 | -51.03184 | -70.80638 | 37861 ft | 493 kts | 93° |
| 2026-04-22 23:01 | -51.03596 | -70.75219 | 38141 ft | 493 kts | 94° |
| 2026-04-22 23:01 | -51.04006 | -70.69797 | 38316 ft | 496 kts | 94° |
| 2026-04-22 23:01 | -51.04421 | -70.64351 | 38540 ft | 497 kts | 94° |
| 2026-04-22 23:01 | -51.04838 | -70.58898 | 38786 ft | 497 kts | 94° |
| 2026-04-22 23:02 | -51.05459 | -70.53483 | 39012 ft | 500 kts | 104° |
| 2026-04-22 23:02 | -51.06672 | -70.48316 | 39252 ft | 500 kts | 117° |
| 2026-04-22 23:02 | -51.08463 | -70.43665 | 39499 ft | 498 kts | 127° |
| 2026-04-22 23:02 | -51.10525 | -70.39157 | 39770 ft | 497 kts | 129° |
| 2026-04-22 23:03 | -51.12610 | -70.34848 | 40089 ft | 495 kts | 131° |
| 2026-04-22 23:03 | -51.14738 | -70.30541 | 40313 ft | 495 kts | 131° |
| 2026-04-22 23:03 | -51.18992 | -70.21926 | 40358 ft | 492 kts | 131° |
| 2026-04-22 23:04 | -51.23182 | -70.13307 | 40359 ft | 491 kts | 130° |
| 2026-04-22 23:04 | -51.27342 | -70.04652 | 40346 ft | 491 kts | 130° |
| 2026-04-22 23:05 | -51.31477 | -69.96005 | 40352 ft | 490 kts | 130° |
| 2026-04-22 23:05 | -51.35609 | -69.87337 | 40359 ft | 490 kts | 130° |
| 2026-04-22 23:06 | -51.39738 | -69.78648 | 40357 ft | 490 kts | 130° |
| 2026-04-22 23:06 | -51.43853 | -69.69962 | 40356 ft | 490 kts | 130° |
| 2026-04-22 23:07 | -51.47973 | -69.61237 | 40354 ft | 490 kts | 130° |
| 2026-04-22 23:07 | -51.52078 | -69.52512 | 40364 ft | 490 kts | 130° |
| 2026-04-22 23:08 | -51.56148 | -69.43832 | 40359 ft | 490 kts | 130° |
| 2026-04-22 23:08 | -51.60507 | -69.35478 | 40358 ft | 484 kts | 142° |
| 2026-04-22 23:09 | -51.63153 | -69.32210 | 40359 ft | 476 kts | 154° |
| 2026-04-22 23:09 | -51.66047 | -69.29712 | 40358 ft | 471 kts | 160° |
| 2026-04-22 23:09 | -51.72003 | -69.25366 | 40361 ft | 469 kts | 163° |
| 2026-04-22 23:10 | -51.78020 | -69.21238 | 40356 ft | 469 kts | 163° |
| 2026-04-22 23:10 | -51.84028 | -69.17093 | 40357 ft | 470 kts | 163° |
| 2026-04-22 23:11 | -51.90038 | -69.12889 | 40358 ft | 469 kts | 162° |
| 2026-04-22 23:11 | -51.96012 | -69.08674 | 40347 ft | 468 kts | 162° |
| 2026-04-22 23:12 | -52.01947 | -69.04473 | 40339 ft | 468 kts | 162° |
| 2026-04-22 23:12 | -52.07910 | -69.00243 | 40337 ft | 468 kts | 162° |
| 2026-04-22 23:13 | -52.13879 | -68.95999 | 40342 ft | 468 kts | 162° |
| 2026-04-22 23:13 | -52.19866 | -68.91730 | 40329 ft | 470 kts | 162° |
| 2026-04-22 23:14 | -52.25851 | -68.87447 | 40329 ft | 470 kts | 162° |
| 2026-04-22 23:14 | -52.31844 | -68.83145 | 40327 ft | 470 kts | 161° |
| 2026-04-22 23:15 | -52.37833 | -68.78835 | 40330 ft | 471 kts | 161° |
| 2026-04-22 23:15 | -52.43842 | -68.74497 | 40323 ft | 472 kts | 161° |
| 2026-04-22 23:16 | -52.49852 | -68.70144 | 40322 ft | 472 kts | 161° |
| 2026-04-22 23:16 | -52.55857 | -68.65782 | 40334 ft | 472 kts | 161° |
| 2026-04-22 23:17 | -52.61857 | -68.61410 | 40309 ft | 471 kts | 161° |
| 2026-04-22 23:17 | -52.67848 | -68.57033 | 40308 ft | 471 kts | 161° |
| 2026-04-22 23:18 | -52.73842 | -68.52641 | 40305 ft | 471 kts | 161° |
| 2026-04-22 23:18 | -52.79823 | -68.48245 | 40248 ft | 471 kts | 161° |
| 2026-04-22 23:19 | -52.82828 | -68.46035 | 40007 ft | 474 kts | 161° |
| 2026-04-22 23:19 | -52.85847 | -68.43813 | 39771 ft | 476 kts | 161° |
| 2026-04-22 23:19 | -52.88884 | -68.41573 | 39540 ft | 478 kts | 161° |
| 2026-04-22 23:19 | -52.91923 | -68.39328 | 39308 ft | 479 kts | 161° |
| 2026-04-22 23:20 | -52.94996 | -68.37057 | 39090 ft | 490 kts | 161° |
| 2026-04-22 23:20 | -52.98142 | -68.34733 | 39003 ft | 499 kts | 161° |
| 2026-04-22 23:20 | -53.04530 | -68.29988 | 38790 ft | 503 kts | 161° |
| 2026-04-22 23:21 | -53.07728 | -68.27599 | 38379 ft | 504 kts | 161° |
| 2026-04-22 23:21 | -53.10936 | -68.25200 | 37766 ft | 506 kts | 162° |
| 2026-04-22 23:21 | -53.14107 | -68.22829 | 37237 ft | 508 kts | 161° |
| 2026-04-22 23:21 | -53.17346 | -68.20406 | 36804 ft | 512 kts | 161° |
| 2026-04-22 23:22 | -53.20605 | -68.17965 | 36355 ft | 514 kts | 161° |
| 2026-04-22 23:22 | -53.23874 | -68.15510 | 35902 ft | 516 kts | 161° |
| 2026-04-22 23:22 | -53.27145 | -68.13048 | 35494 ft | 516 kts | 160° |
| 2026-04-22 23:22 | -53.30417 | -68.10580 | 34976 ft | 517 kts | 160° |
| 2026-04-22 23:23 | -53.33703 | -68.08099 | 34406 ft | 519 kts | 160° |
| 2026-04-22 23:23 | -53.37000 | -68.05607 | 33724 ft | 522 kts | 160° |
| 2026-04-22 23:23 | -53.40315 | -68.03097 | 32950 ft | 524 kts | 160° |
| 2026-04-22 23:23 | -53.43647 | -68.00568 | 32176 ft | 526 kts | 159° |
| 2026-04-22 23:24 | -53.46988 | -67.98029 | 31396 ft | 528 kts | 159° |
| 2026-04-22 23:24 | -53.50341 | -67.95475 | 30609 ft | 531 kts | 159° |
| 2026-04-22 23:24 | -53.53705 | -67.92908 | 29940 ft | 529 kts | 159° |
| 2026-04-22 23:24 | -53.57024 | -67.90365 | 29639 ft | 518 kts | 159° |
| 2026-04-22 23:25 | -53.60270 | -67.87870 | 29258 ft | 508 kts | 159° |
| 2026-04-22 23:25 | -53.63465 | -67.85414 | 28700 ft | 502 kts | 159° |
| 2026-04-22 23:25 | -53.66632 | -67.82980 | 28122 ft | 497 kts | 159° |
| 2026-04-22 23:25 | -53.69765 | -67.80571 | 27555 ft | 492 kts | 159° |
| 2026-04-22 23:26 | -53.72869 | -67.78180 | 26976 ft | 489 kts | 160° |
| 2026-04-22 23:26 | -53.75975 | -67.75880 | 26328 ft | 483 kts | 166° |
| 2026-04-22 23:26 | -53.79190 | -67.74669 | 25819 ft | 467 kts | 180° |
| 2026-04-22 23:26 | -53.82400 | -67.74153 | 25289 ft | 460 kts | 183° |
| 2026-04-22 23:27 | -53.85576 | -67.73764 | 24772 ft | 455 kts | 184° |
| 2026-04-22 23:27 | -53.88722 | -67.73409 | 24250 ft | 452 kts | 184° |
| 2026-04-22 23:27 | -53.91845 | -67.73067 | 23735 ft | 448 kts | 184° |
| 2026-04-22 23:27 | -53.94942 | -67.72732 | 23224 ft | 444 kts | 184° |
| 2026-04-22 23:28 | -53.97979 | -67.72404 | 22723 ft | 441 kts | 184° |
| 2026-04-22 23:28 | -54.01032 | -67.72076 | 22131 ft | 437 kts | 184° |
| 2026-04-22 23:28 | -54.04053 | -67.71750 | 21606 ft | 432 kts | 185° |
| 2026-04-22 23:28 | -54.07034 | -67.71429 | 21086 ft | 428 kts | 185° |
| 2026-04-22 23:29 | -54.09990 | -67.71111 | 20567 ft | 423 kts | 185° |
| 2026-04-22 23:29 | -54.12917 | -67.70796 | 20056 ft | 419 kts | 185° |
| 2026-04-22 23:29 | -54.15815 | -67.70483 | 19551 ft | 415 kts | 185° |
| 2026-04-22 23:29 | -54.18682 | -67.70173 | 19027 ft | 408 kts | 185° |
| 2026-04-22 23:30 | -54.21477 | -67.69863 | 18090 ft | 400 kts | 185° |
| 2026-04-22 23:30 | -54.24257 | -67.69569 | 17523 ft | 401 kts | 186° |
| 2026-04-22 23:30 | -54.27041 | -67.69273 | 16943 ft | 400 kts | 186° |
| 2026-04-22 23:30 | -54.28915 | -67.69071 | 16594 ft | 398 kts | 186° |
| 2026-04-22 23:31 | -54.32550 | -67.68677 | 15947 ft | 392 kts | 186° |
| 2026-04-22 23:31 | -54.34348 | -67.68480 | 15626 ft | 390 kts | 186° |
| 2026-04-22 23:31 | -54.37037 | -67.68187 | 15142 ft | 386 kts | 186° |
| 2026-04-22 23:31 | -54.39706 | -67.67893 | 14665 ft | 382 kts | 186° |
| 2026-04-22 23:32 | -54.42344 | -67.67616 | 14285 ft | 379 kts | 186° |
| 2026-04-22 23:32 | -54.44973 | -67.67327 | 13823 ft | 377 kts | 186° |
| 2026-04-22 23:32 | -54.47580 | -67.67039 | 13402 ft | 373 kts | 186° |
| 2026-04-22 23:32 | -54.50164 | -67.66761 | 13210 ft | 373 kts | 186° |
| 2026-04-22 23:33 | -54.52752 | -67.66489 | 12954 ft | 367 kts | 186° |
| 2026-04-22 23:33 | -54.55243 | -67.66197 | 12060 ft | 355 kts | 186° |
| 2026-04-22 23:33 | -54.57767 | -67.65929 | 11724 ft | 368 kts | 186° |
| 2026-04-22 23:33 | -54.60285 | -67.65647 | 11335 ft | 357 kts | 186° |
| 2026-04-22 23:34 | -54.62742 | -67.65366 | 10376 ft | 353 kts | 186° |
| 2026-04-22 23:34 | -54.65216 | -67.65100 | 9649 ft | 358 kts | 185° |
| 2026-04-22 23:34 | -54.67686 | -67.64828 | 9268 ft | 350 kts | 185° |
| 2026-04-22 23:34 | -54.70078 | -67.64540 | 9038 ft | 344 kts | 185° |
| 2026-04-22 23:35 | -54.72424 | -67.64269 | 8535 ft | 327 kts | 185° |
| 2026-04-22 23:35 | -54.74612 | -67.64012 | 8224 ft | 303 kts | 186° |
| 2026-04-22 23:35 | -54.76647 | -67.63783 | 8060 ft | 286 kts | 187° |
| 2026-04-22 23:35 | -54.78569 | -67.63769 | 7873 ft | 265 kts | 201° |
| 2026-04-22 23:36 | -54.80188 | -67.64814 | 7636 ft | 237 kts | 228° |
| 2026-04-22 23:36 | -54.81312 | -67.66690 | 7480 ft | 214 kts | 249° |
| 2026-04-22 23:36 | -54.81847 | -67.68893 | 7255 ft | 188 kts | 270° |
| 2026-04-22 23:36 | -54.81986 | -67.71043 | 7038 ft | 172 kts | 275° |
| 2026-04-22 23:37 | -54.82164 | -67.73081 | 6601 ft | 172 kts | 270° |
| 2026-04-22 23:37 | -54.82260 | -67.75119 | 6260 ft | 168 kts | 279° |
| 2026-04-22 23:37 | -54.82303 | -67.77119 | 6055 ft | 165 kts | 277° |
| 2026-04-22 23:37 | -54.82377 | -67.79079 | 5753 ft | 160 kts | 276° |
| 2026-04-22 23:38 | -54.82451 | -67.81024 | 5618 ft | 161 kts | 276° |
| 2026-04-22 23:38 | -54.82528 | -67.82884 | 5556 ft | 148 kts | 278° |
| 2026-04-22 23:38 | -54.82606 | -67.84623 | 5507 ft | 142 kts | 278° |
| 2026-04-22 23:38 | -54.82671 | -67.86261 | 5410 ft | 129 kts | 281° |
| 2026-04-22 23:39 | -54.82710 | -67.87785 | 5405 ft | 126 kts | 280° |
| 2026-04-22 23:39 | -54.82762 | -67.89343 | 5390 ft | 135 kts | 278° |
| 2026-04-22 23:39 | -54.82833 | -67.90957 | 5131 ft | 129 kts | 281° |
| 2026-04-22 23:39 | -54.82905 | -67.92445 | 4969 ft | 124 kts | 281° |
| 2026-04-22 23:40 | -54.82951 | -67.93984 | 4642 ft | 126 kts | 282° |
| 2026-04-22 23:40 | -54.83007 | -67.95472 | 4415 ft | 123 kts | 281° |
| 2026-04-22 23:40 | -54.83064 | -67.96919 | 4216 ft | 121 kts | 282° |
| 2026-04-22 23:40 | -54.83120 | -67.98377 | 4021 ft | 121 kts | 283° |
| 2026-04-22 23:41 | -54.83171 | -67.99834 | 3850 ft | 121 kts | 283° |
| 2026-04-22 23:41 | -54.83232 | -68.01291 | 3636 ft | 121 kts | 282° |
| 2026-04-22 23:41 | -54.83290 | -68.02732 | 3440 ft | 120 kts | 282° |
| 2026-04-22 23:41 | -54.83342 | -68.04159 | 3210 ft | 121 kts | 278° |
| 2026-04-22 23:42 | -54.83396 | -68.05589 | 3038 ft | 118 kts | 278° |
| 2026-04-22 23:42 | -54.83456 | -68.06997 | 2835 ft | 115 kts | 284° |
| 2026-04-22 23:42 | -54.83506 | -68.08393 | 2651 ft | 117 kts | 282° |
| 2026-04-22 23:42 | -54.83563 | -68.09802 | 2441 ft | 117 kts | 283° |
| 2026-04-22 23:43 | -54.83618 | -68.11207 | 2239 ft | 117 kts | 282° |
| 2026-04-22 23:43 | -54.83672 | -68.12609 | 2022 ft | 116 kts | 280° |
| 2026-04-22 23:43 | -54.83727 | -68.14006 | 1822 ft | 116 kts | 279° |
| 2026-04-22 23:43 | -54.83780 | -68.15401 | 1652 ft | 116 kts | 278° |
| 2026-04-22 23:44 | -54.83834 | -68.16791 | 1464 ft | 115 kts | 280° |
| 2026-04-22 23:44 | -54.83887 | -68.18172 | 1305 ft | 114 kts | 282° |
| 2026-04-22 23:44 | -54.83940 | -68.19539 | 1135 ft | 114 kts | 283° |
| 2026-04-22 23:44 | -54.83994 | -68.20905 | 974 ft | 113 kts | 283° |
| 2026-04-22 23:45 | -54.84059 | -68.22268 | 789 ft | 115 kts | 280° |
| 2026-04-22 23:45 | -54.84183 | -68.23636 | 619 ft | 113 kts | 278° |
| 2026-04-22 23:45 | -54.84250 | -68.24967 | 454 ft | 111 kts | 284° |
| 2026-04-22 23:45 | -54.84244 | -68.26273 | 258 ft | 110 kts | 284° |
| 2026-04-22 23:46 | -54.84274 | -68.27599 | 141 ft | 111 kts | 288° |
| 2026-04-22 23:46 | -54.84300 | -68.28854 | 89 ft | 83 kts | 268° |
| 2026-04-22 23:46 | -54.84326 | -68.29607 | 92 ft | 53 kts | 266° |
| 2026-04-22 23:46 | -54.84354 | -68.30224 | 86 ft | 50 kts | 267° |
| 2026-04-22 23:47 | -54.84375 | -68.30738 | 77 ft | 24 kts | 265° |
| 2026-04-22 23:47 | -54.84346 | -68.30941 | 93 ft | 11 kts | 328° |
| 2026-04-22 23:47 | -54.84272 | -68.30964 | 89 ft | 11 kts | 354° |
| 2026-04-22 23:47 | -54.84191 | -68.30977 | 89 ft | 12 kts | 354° |
| 2026-04-22 23:48 | -54.84111 | -68.31000 | 89 ft | 8 kts | 331° |
| 2026-04-22 23:48 | -54.84097 | -68.31053 | 90 ft | 4 kts | 283° |
| 2026-04-22 23:48 | -54.84094 | -68.31116 | 90 ft | 7 kts | 275° |
| 2026-04-22 23:48 | -54.84094 | -68.31211 | 91 ft | 9 kts | 267° |
| 2026-04-22 23:49 | -54.84074 | -68.31267 | 91 ft | 3 kts | 335° |
| 2026-04-22 23:49 | -54.84056 | -68.31264 | 90 ft | 3 kts | 12° |
| 2026-04-22 23:49 | -54.84038 | -68.31256 | 89 ft | 2 kts | 16° |
| 2026-04-22 23:49 | -54.84031 | -68.31252 | 91 ft | 0 kts | 17° |